Time;durP1;ratioP1;P1;durP2;ratioP2;P2;SDS_P1;SDS_P2;PMS_P1;PMS_P2;Temp;Humidity;BMP_temperature;BMP_pressure;BME280_temperature;BME280_humidity;BME280_pressure;Samples;Min_cycle;Max_cycle;Signal;HPM_P1;HPM_P2
2021/05/10 00:00:37;;;;;;;4.70;2.30;;;;;;;;;;5071325;28;20186;-67
2021/05/10 00:03:03;;;;;;;2.40;1.60;;;;;;;;;;5085022;28;20883;-67
2021/05/10 00:05:29;;;;;;;1.67;1.57;;;;;;;;;;5083719;28;20208;-67
2021/05/10 00:07:55;;;;;;;2.80;2.13;;;;;;;;;;5088994;28;20513;-67
2021/05/10 00:10:21;;;;;;;2.13;1.83;;;;;;;;;;5082283;28;20187;-67
2021/05/10 00:12:48;;;;;;;3.20;1.80;;;;;;;;;;5087515;28;20240;-68
2021/05/10 00:15:14;;;;;;;2.27;1.90;;;;;;;;;;5073233;28;20177;-67
2021/05/10 00:17:40;;;;;;;4.07;1.47;;;;;;;;;;5078542;28;20205;-67
2021/05/10 00:20:07;;;;;;;1.60;1.50;;;;;;;;;;5088687;28;20184;-67
2021/05/10 00:22:33;;;;;;;2.40;1.83;;;;;;;;;;5085992;28;20180;-67
2021/05/10 00:24:59;;;;;;;3.17;1.83;;;;;;;;;;5088338;28;20171;-67
2021/05/10 00:27:25;;;;;;;2.50;1.57;;;;;;;;;;5085135;28;20633;-66
2021/05/10 00:29:51;;;;;;;2.87;1.97;;;;;;;;;;5073443;28;20212;-66
2021/05/10 00:32:17;;;;;;;1.97;1.77;;;;;;;;;;5072610;28;20557;-66
2021/05/10 00:34:43;;;;;;;2.43;1.77;;;;;;;;;;5083690;28;20671;-68
2021/05/10 00:37:09;;;;;;;1.97;1.73;;;;;;;;;;5091158;28;20212;-68
2021/05/10 00:39:35;;;;;;;4.30;1.70;;;;;;;;;;5088269;28;20177;-67
2021/05/10 00:42:01;;;;;;;1.83;1.73;;;;;;;;;;5071060;28;20173;-66
2021/05/10 00:44:27;;;;;;;2.30;1.57;;;;;;;;;;5059742;28;20692;-68
2021/05/10 00:46:53;;;;;;;2.20;1.80;;;;;;;;;;5072132;28;20183;-68
2021/05/10 00:49:20;;;;;;;3.40;1.70;;;;;;;;;;5083563;28;20260;-70
2021/05/10 00:51:46;;;;;;;3.83;2.03;;;;;;;;;;5081715;28;20230;-67
2021/05/10 00:54:12;;;;;;;4.17;1.90;;;;;;;;;;5069535;28;20184;-68
2021/05/10 00:56:38;;;;;;;2.43;1.40;;;;;;;;;;5077990;28;20204;-67
2021/05/10 00:59:05;;;;;;;3.43;1.80;;;;;;;;;;5070622;28;20567;-66
2021/05/10 01:01:31;;;;;;;3.37;1.93;;;;;;;;;;5082759;28;20651;-67
2021/05/10 01:03:57;;;;;;;4.53;2.40;;;;;;;;;;5085552;28;20188;-68
2021/05/10 01:06:23;;;;;;;4.00;1.87;;;;;;;;;;5067032;28;20200;-67
2021/05/10 01:08:49;;;;;;;2.30;1.50;;;;;;;;;;5066350;28;20184;-67
2021/05/10 01:11:16;;;;;;;2.43;2.23;;;;;;;;;;5078429;28;20188;-67
2021/05/10 01:13:42;;;;;;;4.47;1.83;;;;;;;;;;5072481;28;20198;-67
2021/05/10 01:16:08;;;;;;;1.80;1.70;;;;;;;;;;5089194;28;20658;-67
2021/05/10 01:18:34;;;;;;;1.67;1.53;;;;;;;;;;5069481;28;20215;-67
2021/05/10 01:21:02;;;;;;;3.63;1.83;;;;;;;;;;5070742;28;20172;-67
2021/05/10 01:23:29;;;;;;;2.10;1.90;;;;;;;;;;5089279;28;20178;-67
2021/05/10 01:25:55;;;;;;;3.80;1.83;;;;;;;;;;5067125;28;20245;-68
2021/05/10 01:28:21;;;;;;;4.73;1.70;;;;;;;;;;5086399;28;20180;-67
2021/05/10 01:30:50;;;;;;;2.73;2.03;;;;;;;;;;5088329;28;20183;-67
2021/05/10 01:33:17;;;;;;;2.00;1.63;;;;;;;;;;5084037;28;20212;-67
2021/05/10 01:35:46;;;;;;;3.27;1.83;;;;;;;;;;5089315;28;20421;-67
2021/05/10 01:38:12;;;;;;;2.10;1.40;;;;;;;;;;5087483;28;20722;-67
2021/05/10 01:40:38;;;;;;;4.57;1.80;;;;;;;;;;5087291;28;20180;-67
2021/05/10 01:43:05;;;;;;;2.27;1.93;;;;;;;;;;5070381;28;20184;-67
2021/05/10 01:45:31;;;;;;;2.20;1.70;;;;;;;;;;5090166;28;20300;-68
2021/05/10 01:48:03;;;;;;;4.00;2.17;;;;;;;;;;5088514;28;20971;-67
2021/05/10 01:50:29;;;;;;;2.37;1.57;;;;;;;;;;5070075;28;20203;-68
2021/05/10 01:52:56;;;;;;;1.97;1.80;;;;;;;;;;5079223;28;20230;-68
2021/05/10 01:55:22;;;;;;;1.83;1.67;;;;;;;;;;5083331;28;20201;-68
2021/05/10 01:57:49;;;;;;;3.13;1.60;;;;;;;;;;5078228;28;20245;-67
2021/05/10 02:00:17;;;;;;;2.77;1.57;;;;;;;;;;5058735;28;20264;-67
2021/05/10 02:02:43;;;;;;;3.27;1.80;;;;;;;;;;5079067;28;20172;-67
2021/05/10 02:05:10;;;;;;;2.83;1.97;;;;;;;;;;5071403;28;20248;-67
2021/05/10 02:07:37;;;;;;;2.70;1.77;;;;;;;;;;5080147;28;20195;-67
2021/05/10 02:10:07;;;;;;;3.10;1.60;;;;;;;;;;5075750;28;20274;-67
2021/05/10 02:12:33;;;;;;;1.90;1.67;;;;;;;;;;5071982;28;20189;-67
2021/05/10 02:14:59;;;;;;;2.07;1.60;;;;;;;;;;5087973;28;20666;-68
2021/05/10 02:17:25;;;;;;;4.07;2.03;;;;;;;;;;5071137;28;20618;-67
2021/05/10 02:19:51;;;;;;;2.10;1.80;;;;;;;;;;5069793;28;20168;-66
2021/05/10 02:22:17;;;;;;;1.57;1.47;;;;;;;;;;5080062;28;20542;-67
2021/05/10 02:24:43;;;;;;;2.10;1.70;;;;;;;;;;5085075;28;20268;-66
2021/05/10 02:27:10;;;;;;;3.03;1.83;;;;;;;;;;5066538;28;20452;-67
2021/05/10 02:29:36;;;;;;;5.20;1.80;;;;;;;;;;5089988;28;20184;-66
2021/05/10 02:32:02;;;;;;;2.53;1.57;;;;;;;;;;5080206;28;20208;-66
2021/05/10 02:34:28;;;;;;;2.73;1.93;;;;;;;;;;5067983;28;20220;-67
2021/05/10 02:36:54;;;;;;;3.10;1.50;;;;;;;;;;5082270;28;20292;-66
2021/05/10 02:39:21;;;;;;;1.67;1.57;;;;;;;;;;5086774;28;20208;-69
2021/05/10 02:41:47;;;;;;;1.83;1.70;;;;;;;;;;5078615;28;20188;-66
2021/05/10 02:44:13;;;;;;;2.67;1.93;;;;;;;;;;5087848;28;20196;-67
2021/05/10 02:46:39;;;;;;;3.90;1.97;;;;;;;;;;5088483;28;20187;-66
2021/05/10 02:49:05;;;;;;;1.73;1.63;;;;;;;;;;5078976;28;20281;-66
2021/05/10 02:51:31;;;;;;;3.83;1.93;;;;;;;;;;5074091;28;20535;-67
2021/05/10 02:53:57;;;;;;;2.70;1.80;;;;;;;;;;5092116;28;20603;-67
2021/05/10 02:56:23;;;;;;;2.90;1.50;;;;;;;;;;5083867;28;20237;-67
2021/05/10 02:58:49;;;;;;;2.83;1.57;;;;;;;;;;5077307;28;20183;-66
2021/05/10 03:01:15;;;;;;;1.70;1.60;;;;;;;;;;5072119;28;20533;-68
2021/05/10 03:03:41;;;;;;;3.40;1.97;;;;;;;;;;5091343;28;20198;-66
2021/05/10 03:06:07;;;;;;;2.13;1.33;;;;;;;;;;5087061;28;20512;-67
2021/05/10 03:08:33;;;;;;;3.20;1.40;;;;;;;;;;5074173;28;20267;-66
2021/05/10 03:10:59;;;;;;;1.47;1.37;;;;;;;;;;5078424;28;20180;-69
2021/05/10 03:13:25;;;;;;;1.73;1.50;;;;;;;;;;5082726;28;20175;-67
2021/05/10 03:15:51;;;;;;;1.40;1.30;;;;;;;;;;5085945;28;20176;-67
2021/05/10 03:18:18;;;;;;;1.97;1.80;;;;;;;;;;5075330;28;20208;-67
2021/05/10 03:20:44;;;;;;;2.47;1.60;;;;;;;;;;5092939;28;20747;-67
2021/05/10 03:23:10;;;;;;;2.23;1.90;;;;;;;;;;5075654;28;20185;-66
2021/05/10 03:25:36;;;;;;;2.17;1.60;;;;;;;;;;5090249;28;20183;-67
2021/05/10 03:28:02;;;;;;;1.67;1.47;;;;;;;;;;5091063;28;20194;-67
2021/05/10 03:30:28;;;;;;;1.63;1.40;;;;;;;;;;5080065;28;20184;-66
2021/05/10 03:32:54;;;;;;;3.87;1.70;;;;;;;;;;5078540;28;20208;-66
2021/05/10 03:35:21;;;;;;;1.97;1.60;;;;;;;;;;5077857;28;20792;-66
2021/05/10 03:37:47;;;;;;;2.07;1.73;;;;;;;;;;5065311;28;20670;-66
2021/05/10 03:40:14;;;;;;;3.37;2.00;;;;;;;;;;5081691;28;20177;-66
2021/05/10 03:42:40;;;;;;;3.57;1.50;;;;;;;;;;5082890;28;20183;-66
2021/05/10 03:45:07;;;;;;;1.70;1.60;;;;;;;;;;5084520;28;20215;-67
2021/05/10 03:47:40;;;;;;;1.50;1.40;;;;;;;;;;5082013;28;20180;-66
2021/05/10 03:50:10;;;;;;;2.47;1.90;;;;;;;;;;5087954;28;20204;-70
2021/05/10 03:52:36;;;;;;;2.10;1.57;;;;;;;;;;5077815;28;20183;-66
2021/05/10 03:55:02;;;;;;;2.00;1.70;;;;;;;;;;5085189;28;20643;-67
2021/05/10 03:57:28;;;;;;;3.70;2.10;;;;;;;;;;5057744;28;20200;-66
2021/05/10 03:59:54;;;;;;;4.87;1.93;;;;;;;;;;5082236;28;20231;-66
2021/05/10 04:02:21;;;;;;;4.60;1.93;;;;;;;;;;5057669;28;20172;-67
2021/05/10 04:04:53;;;;;;;2.33;2.13;;;;;;;;;;5087877;28;20214;-67
2021/05/10 04:15:27;;;;;;;2.57;1.70;;;;;;;;;;5077025;28;20219;-66
2021/05/10 04:17:53;;;;;;;3.83;1.93;;;;;;;;;;5076477;28;20199;-65
2021/05/10 04:20:19;;;;;;;1.83;1.50;;;;;;;;;;5064494;28;20188;-66
2021/05/10 04:22:45;;;;;;;1.97;1.70;;;;;;;;;;5072279;28;20176;-66
2021/05/10 04:25:11;;;;;;;1.43;1.33;;;;;;;;;;5065405;28;20187;-66
2021/05/10 04:27:37;;;;;;;3.47;1.80;;;;;;;;;;5076256;28;20187;-66
2021/05/10 04:30:04;;;;;;;2.30;1.67;;;;;;;;;;5101403;28;20683;-66
2021/05/10 04:32:30;;;;;;;2.77;1.90;;;;;;;;;;5088413;28;20183;-67
2021/05/10 04:34:56;;;;;;;2.07;1.53;;;;;;;;;;5079620;28;20189;-67
2021/05/10 04:37:22;;;;;;;1.50;1.40;;;;;;;;;;5088281;28;20214;-70
2021/05/10 04:39:48;;;;;;;3.77;1.93;;;;;;;;;;5075181;28;20199;-67
2021/05/10 04:42:14;;;;;;;1.90;1.60;;;;;;;;;;5089771;28;20175;-67
2021/05/10 04:44:40;;;;;;;2.13;1.83;;;;;;;;;;5075181;28;20215;-67
2021/05/10 04:47:06;;;;;;;2.13;2.03;;;;;;;;;;5071244;28;20180;-67
2021/05/10 04:49:32;;;;;;;2.13;1.97;;;;;;;;;;5051955;28;20612;-69
2021/05/10 04:51:58;;;;;;;1.87;1.63;;;;;;;;;;5059005;28;20223;-68
2021/05/10 04:54:24;;;;;;;1.90;1.43;;;;;;;;;;5061238;28;20225;-69
2021/05/10 04:56:50;;;;;;;3.47;1.50;;;;;;;;;;5068803;28;20213;-68
2021/05/10 04:59:16;;;;;;;2.33;1.73;;;;;;;;;;5063085;28;20620;-67
2021/05/10 05:01:43;;;;;;;1.60;1.50;;;;;;;;;;5089474;28;20187;-68
2021/05/10 05:04:09;;;;;;;3.00;1.50;;;;;;;;;;5090762;28;20641;-68
2021/05/10 05:06:35;;;;;;;1.83;1.73;;;;;;;;;;5084314;28;20176;-66
2021/05/10 05:09:01;;;;;;;3.03;1.73;;;;;;;;;;5086636;28;20208;-68
2021/05/10 05:11:27;;;;;;;1.77;1.67;;;;;;;;;;5089016;28;20211;-67
2021/05/10 05:13:53;;;;;;;2.77;1.63;;;;;;;;;;5072845;28;20187;-68
2021/05/10 05:16:19;;;;;;;1.70;1.53;;;;;;;;;;5086797;28;20531;-67
2021/05/10 05:18:45;;;;;;;3.43;1.67;;;;;;;;;;5070955;28;20228;-67
2021/05/10 05:21:11;;;;;;;2.87;1.97;;;;;;;;;;5089697;28;20172;-67
2021/05/10 05:23:37;;;;;;;5.03;2.10;;;;;;;;;;5088298;28;20175;-66
2021/05/10 05:26:04;;;;;;;3.15;1.90;;;;;;;;;;5076067;28;20418;-67
2021/05/10 05:28:32;;;;;;;2.60;1.87;;;;;;;;;;5072128;28;20216;-66
2021/05/10 05:30:58;;;;;;;2.07;1.70;;;;;;;;;;5073377;28;20187;-67
2021/05/10 05:33:25;;;;;;;2.30;1.87;;;;;;;;;;5061796;28;20216;-67
2021/05/10 05:35:51;;;;;;;3.07;1.50;;;;;;;;;;5080522;28;20657;-66
2021/05/10 05:38:17;;;;;;;5.07;1.80;;;;;;;;;;5052431;28;20243;-66
2021/05/10 05:40:44;;;;;;;4.33;1.90;;;;;;;;;;5088501;28;20583;-67
2021/05/10 05:43:10;;;;;;;2.17;1.57;;;;;;;;;;5066528;28;20180;-65
2021/05/10 05:45:37;;;;;;;2.73;1.90;;;;;;;;;;5083365;28;20247;-66
2021/05/10 05:48:04;;;;;;;2.83;1.60;;;;;;;;;;5073186;28;20180;-66
2021/05/10 05:50:30;;;;;;;2.20;1.60;;;;;;;;;;5068472;28;20199;-66
2021/05/10 05:52:56;;;;;;;5.63;2.03;;;;;;;;;;5076677;28;20225;-68
2021/05/10 05:55:22;;;;;;;2.07;1.87;;;;;;;;;;5058777;28;20180;-66
2021/05/10 05:57:49;;;;;;;2.57;1.70;;;;;;;;;;5052179;28;20200;-67
2021/05/10 06:00:15;;;;;;;2.73;1.80;;;;;;;;;;5088901;28;20168;-66
2021/05/10 06:02:41;;;;;;;3.67;2.00;;;;;;;;;;5065166;28;20208;-67
2021/05/10 06:05:08;;;;;;;5.30;2.27;;;;;;;;;;5077111;28;20176;-65
2021/05/10 06:07:39;;;;;;;1.90;1.57;;;;;;;;;;5061559;28;20570;-67
2021/05/10 06:10:05;;;;;;;4.37;1.73;;;;;;;;;;5066940;28;20190;-66
2021/05/10 06:12:31;;;;;;;4.30;1.77;;;;;;;;;;5062360;28;20184;-67
2021/05/10 06:14:57;;;;;;;2.20;2.00;;;;;;;;;;5087023;28;20540;-67
2021/05/10 06:17:23;;;;;;;2.67;1.77;;;;;;;;;;5093331;28;20195;-67
2021/05/10 06:19:49;;;;;;;3.67;1.80;;;;;;;;;;5074751;28;20261;-67
2021/05/10 06:22:16;;;;;;;2.10;1.90;;;;;;;;;;5068894;28;20524;-66
2021/05/10 06:24:42;;;;;;;3.73;1.80;;;;;;;;;;5081808;28;20177;-66
2021/05/10 06:27:08;;;;;;;2.60;1.80;;;;;;;;;;5064625;28;20186;-66
2021/05/10 06:29:34;;;;;;;2.30;1.73;;;;;;;;;;5067716;28;20183;-68
2021/05/10 06:32:00;;;;;;;2.40;1.70;;;;;;;;;;5067417;28;20172;-66
2021/05/10 06:34:26;;;;;;;2.50;1.60;;;;;;;;;;5087921;28;20610;-66
2021/05/10 06:36:52;;;;;;;2.90;1.50;;;;;;;;;;5085365;28;20253;-66
2021/05/10 06:39:18;;;;;;;2.60;1.60;;;;;;;;;;5087461;28;20184;-66
2021/05/10 06:41:44;;;;;;;2.03;1.63;;;;;;;;;;5064926;28;20521;-68
2021/05/10 06:44:10;;;;;;;3.17;1.50;;;;;;;;;;5091942;28;20171;-67
2021/05/10 06:46:39;;;;;;;1.63;1.47;;;;;;;;;;5056189;28;20291;-67
2021/05/10 06:49:05;;;;;;;4.00;1.83;;;;;;;;;;5078361;28;20698;-67
2021/05/10 06:51:31;;;;;;;2.63;1.90;;;;;;;;;;5054531;28;20326;-68
2021/05/10 06:53:57;;;;;;;2.17;1.80;;;;;;;;;;5089017;28;20179;-68
2021/05/10 06:56:23;;;;;;;2.33;1.80;;;;;;;;;;5081410;28;20177;-66
2021/05/10 06:58:49;;;;;;;2.03;1.70;;;;;;;;;;5076405;28;20445;-66
2021/05/10 07:01:15;;;;;;;2.50;2.00;;;;;;;;;;5090581;28;20233;-66
2021/05/10 07:03:41;;;;;;;4.00;1.93;;;;;;;;;;5071503;28;20236;-66
2021/05/10 07:06:07;;;;;;;2.60;2.13;;;;;;;;;;5082369;28;20172;-67
2021/05/10 07:08:34;;;;;;;2.00;1.70;;;;;;;;;;5064612;28;20179;-67
2021/05/10 07:11:00;;;;;;;2.30;2.10;;;;;;;;;;5062511;28;20234;-68
2021/05/10 07:13:26;;;;;;;7.00;2.10;;;;;;;;;;5055588;28;20631;-67
2021/05/10 07:15:52;;;;;;;1.80;1.60;;;;;;;;;;5073582;28;20175;-67
2021/05/10 07:18:18;;;;;;;2.40;1.60;;;;;;;;;;5085999;28;20671;-67
2021/05/10 07:20:45;;;;;;;3.13;2.07;;;;;;;;;;5091176;28;20538;-67
2021/05/10 07:23:12;;;;;;;1.97;1.80;;;;;;;;;;5086988;28;20215;-68
2021/05/10 07:25:46;;;;;;;2.07;1.87;;;;;;;;;;5089598;28;20183;-66
2021/05/10 07:28:12;;;;;;;2.40;1.50;;;;;;;;;;5091749;28;20160;-67
2021/05/10 07:30:39;;;;;;;1.77;1.60;;;;;;;;;;5090767;28;20180;-66
2021/05/10 07:33:05;;;;;;;3.97;1.43;;;;;;;;;;5084777;28;20624;-66
2021/05/10 07:35:31;;;;;;;2.33;1.70;;;;;;;;;;5090834;28;20642;-67
2021/05/10 07:37:57;;;;;;;1.63;1.50;;;;;;;;;;5090767;28;20196;-69
2021/05/10 07:40:24;;;;;;;2.50;1.70;;;;;;;;;;5078796;28;20173;-66
2021/05/10 07:42:51;;;;;;;2.20;1.70;;;;;;;;;;5091528;28;20180;-68
2021/05/10 07:45:17;;;;;;;2.20;1.50;;;;;;;;;;5078093;28;20180;-67
2021/05/10 07:47:44;;;;;;;2.73;1.63;;;;;;;;;;5085621;28;20282;-66
2021/05/10 07:50:10;;;;;;;1.73;1.40;;;;;;;;;;5085406;28;20689;-66
2021/05/10 07:52:36;;;;;;;1.77;1.47;;;;;;;;;;5087311;28;20173;-67
2021/05/10 07:55:03;;;;;;;1.47;1.30;;;;;;;;;;5066154;28;20183;-67
2021/05/10 07:57:30;;;;;;;2.77;1.67;;;;;;;;;;5071713;28;20207;-66
2021/05/10 07:59:56;;;;;;;1.57;1.47;;;;;;;;;;5059158;28;20175;-66
2021/05/10 08:02:23;;;;;;;2.47;1.30;;;;;;;;;;5091294;28;20167;-66
2021/05/10 08:04:50;;;;;;;1.30;1.20;;;;;;;;;;5072398;28;20188;-66
2021/05/10 08:07:16;;;;;;;3.50;1.30;;;;;;;;;;5060360;28;20193;-67
2021/05/10 08:09:42;;;;;;;1.20;1.00;;;;;;;;;;5063756;28;21037;-67
2021/05/10 08:12:08;;;;;;;1.57;1.47;;;;;;;;;;5086547;28;20172;-67
2021/05/10 08:14:35;;;;;;;2.53;1.17;;;;;;;;;;5085556;28;20180;-66
2021/05/10 08:17:01;;;;;;;2.10;1.97;;;;;;;;;;5085193;28;20305;-67
2021/05/10 08:19:27;;;;;;;2.63;1.17;;;;;;;;;;5078471;28;20168;-67
2021/05/10 08:21:54;;;;;;;1.00;1.00;;;;;;;;;;5074687;28;20263;-66
2021/05/10 08:24:20;;;;;;;1.30;1.15;;;;;;;;;;5085076;28;20961;-68
2021/05/10 08:26:46;;;;;;;1.13;0.90;;;;;;;;;;5071585;28;20274;-67
2021/05/10 08:29:12;;;;;;;1.20;1.10;;;;;;;;;;5068096;28;20302;-67
2021/05/10 08:31:39;;;;;;;2.37;0.80;;;;;;;;;;5074569;28;20181;-67
2021/05/10 08:34:07;;;;;;;1.63;1.10;;;;;;;;;;5062070;28;20239;-66
2021/05/10 08:36:33;;;;;;;1.33;1.13;;;;;;;;;;5040497;22;20317;-79
2021/05/10 08:38:59;;;;;;;1.73;1.03;;;;;;;;;;5015235;28;20648;-79
2021/05/10 08:41:26;;;;;;;1.00;0.90;;;;;;;;;;5030943;28;20185;-79
2021/05/10 08:43:52;;;;;;;1.20;1.10;;;;;;;;;;5033880;28;20185;-79
2021/05/10 08:46:18;;;;;;;0.77;0.77;;;;;;;;;;5048293;28;20202;-80
2021/05/10 08:48:44;;;;;;;1.00;0.90;;;;;;;;;;5030948;28;20209;-79
2021/05/10 08:51:10;;;;;;;1.27;1.07;;;;;;;;;;5012901;28;20183;-81
2021/05/10 08:53:37;;;;;;;1.00;1.00;;;;;;;;;;5013030;28;20178;-81
2021/05/10 08:56:04;;;;;;;0.90;0.90;;;;;;;;;;5021713;28;20282;-80
2021/05/10 08:58:35;;;;;;;2.67;1.03;;;;;;;;;;5012272;28;20205;-79
2021/05/10 09:01:01;;;;;;;0.90;0.87;;;;;;;;;;5012666;28;20817;-79
2021/05/10 09:03:32;;;;;;;0.93;0.93;;;;;;;;;;5012636;28;20205;-79
2021/05/10 09:06:01;;;;;;;0.90;0.90;;;;;;;;;;5012110;28;20197;-80
2021/05/10 09:08:27;;;;;;;0.90;0.90;;;;;;;;;;5012971;28;20221;-80
2021/05/10 09:11:06;;;;;;;1.67;1.00;;;;;;;;;;5009535;28;20205;-79
2021/05/10 09:13:37;;;;;;;0.80;0.80;;;;;;;;;;5011104;28;20236;-80
2021/05/10 09:16:03;;;;;;;1.23;1.13;;;;;;;;;;5010651;28;20642;-80
2021/05/10 09:18:30;;;;;;;2.00;0.90;;;;;;;;;;5029854;28;20210;-81
2021/05/10 09:21:08;;;;;;;1.47;1.00;;;;;;;;;;5013415;28;20179;-81
2021/05/10 09:23:34;;;;;;;0.80;0.80;;;;;;;;;;5004248;28;20669;-80
2021/05/10 09:26:00;;;;;;;1.90;1.10;;;;;;;;;;4998759;28;20171;-81
2021/05/10 09:28:27;;;;;;;2.50;1.13;;;;;;;;;;4995577;28;20650;-80
2021/05/10 09:30:59;;;;;;;1.63;1.10;;;;;;;;;;5014400;28;20194;-80
2021/05/10 09:33:27;;;;;;;1.70;1.27;;;;;;;;;;5023728;28;20622;-81
2021/05/10 09:36:07;;;;;;;0.80;0.80;;;;;;;;;;5011857;28;20553;-80
2021/05/10 09:38:34;;;;;;;2.20;0.90;;;;;;;;;;5018569;28;20208;-80
2021/05/10 09:41:01;;;;;;;1.93;1.20;;;;;;;;;;5011674;28;20208;-80
2021/05/10 09:43:28;;;;;;;1.93;1.20;;;;;;;;;;5014344;28;20182;-80
2021/05/10 09:45:59;;;;;;;1.90;1.00;;;;;;;;;;5016131;28;20668;-80
2021/05/10 09:48:30;;;;;;;2.77;1.10;;;;;;;;;;5015833;28;20171;-80
2021/05/10 09:50:58;;;;;;;1.50;0.90;;;;;;;;;;5018193;28;20182;-80
2021/05/10 09:53:36;;;;;;;1.20;0.90;;;;;;;;;;5015932;28;20189;-80
2021/05/10 09:56:03;;;;;;;0.83;0.83;;;;;;;;;;5012468;28;20194;-80
2021/05/10 09:58:37;;;;;;;0.90;0.90;;;;;;;;;;5030012;28;20198;-80
2021/05/10 10:01:03;;;;;;;1.60;1.47;;;;;;;;;;5016391;28;20278;-80
2021/05/10 10:03:29;;;;;;;1.43;0.83;;;;;;;;;;5015726;28;20181;-80
2021/05/10 10:05:57;;;;;;;2.60;0.90;;;;;;;;;;5016063;28;20491;-80
2021/05/10 10:08:23;;;;;;;1.20;1.10;;;;;;;;;;5031340;28;20201;-82
2021/05/10 10:10:49;;;;;;;1.30;1.03;;;;;;;;;;5014834;28;20205;-82
2021/05/10 10:13:16;;;;;;;2.50;1.00;;;;;;;;;;5014790;28;20269;-82
2021/05/10 10:15:43;;;;;;;1.23;1.10;;;;;;;;;;5016806;28;20182;-83
2021/05/10 10:18:12;;;;;;;2.50;1.20;;;;;;;;;;5014488;28;20203;-83
2021/05/10 10:20:39;;;;;;;0.80;0.80;;;;;;;;;;5018307;28;20585;-83
2021/05/10 10:23:08;;;;;;;0.93;0.93;;;;;;;;;;5015536;28;20175;-82
2021/05/10 10:25:36;;;;;;;1.07;0.80;;;;;;;;;;5017885;28;20198;-83
2021/05/10 10:28:03;;;;;;;1.10;1.10;;;;;;;;;;5017942;28;20190;-84
2021/05/10 10:30:31;;;;;;;1.27;0.90;;;;;;;;;;5016475;28;20191;-85
2021/05/10 10:32:59;;;;;;;2.47;1.03;;;;;;;;;;5006063;28;21532;-82
2021/05/10 10:35:26;;;;;;;1.70;1.30;;;;;;;;;;5025466;28;20197;-83
2021/05/10 10:37:52;;;;;;;0.90;0.90;;;;;;;;;;5023965;28;20209;-82
2021/05/10 10:40:21;;;;;;;2.27;1.10;;;;;;;;;;5018830;28;20221;-83
2021/05/10 10:42:47;;;;;;;1.17;1.03;;;;;;;;;;5022120;28;20178;-82
2021/05/10 10:45:21;;;;;;;1.00;0.90;;;;;;;;;;5025305;28;20193;-82
2021/05/10 10:47:52;;;;;;;2.07;1.00;;;;;;;;;;5026643;28;20178;-81
2021/05/10 10:50:20;;;;;;;1.93;0.97;;;;;;;;;;5028660;28;20641;-83
2021/05/10 10:52:49;;;;;;;4.53;1.13;;;;;;;;;;5036647;28;20186;-82
2021/05/10 10:55:17;;;;;;;1.00;1.00;;;;;;;;;;5022395;28;20178;-82
2021/05/10 10:57:43;;;;;;;2.93;1.57;;;;;;;;;;5019424;28;20217;-82
2021/05/10 11:00:13;;;;;;;1.40;1.00;;;;;;;;;;5031369;28;20348;-82
2021/05/10 11:02:42;;;;;;;1.30;1.20;;;;;;;;;;5031410;28;20178;-82
2021/05/10 11:05:12;;;;;;;0.87;0.87;;;;;;;;;;5034581;28;20205;-82
2021/05/10 11:07:54;;;;;;;1.50;1.20;;;;;;;;;;5036790;28;20231;-83
2021/05/10 11:10:38;;;;;;;2.40;1.37;;;;;;;;;;5023956;28;20543;-83
2021/05/10 11:13:07;;;;;;;1.20;1.10;;;;;;;;;;5015941;28;20185;-82
2021/05/10 11:15:33;;;;;;;1.37;1.10;;;;;;;;;;5038967;28;20614;-82
2021/05/10 11:17:59;;;;;;;0.90;0.90;;;;;;;;;;5019580;28;20201;-82
2021/05/10 11:20:38;;;;;;;1.50;1.40;;;;;;;;;;5039275;28;20176;-83
2021/05/10 11:23:23;;;;;;;1.90;1.30;;;;;;;;;;5034064;28;20201;-81
2021/05/10 11:25:50;;;;;;;2.47;1.03;;;;;;;;;;5037775;28;20239;-82
2021/05/10 11:28:25;;;;;;;1.53;1.07;;;;;;;;;;5035108;28;20501;-81
2021/05/10 11:30:58;;;;;;;1.17;1.17;;;;;;;;;;5036741;28;20197;-81
2021/05/10 11:33:43;;;;;;;3.03;1.20;;;;;;;;;;5002402;28;20189;-82
2021/05/10 11:36:19;;;;;;;1.20;1.10;;;;;;;;;;5029989;28;20227;-83
2021/05/10 11:38:51;;;;;;;1.67;1.20;;;;;;;;;;5035386;28;20699;-81
2021/05/10 11:41:17;;;;;;;1.47;1.37;;;;;;;;;;5035995;28;20238;-83
2021/05/10 11:43:43;;;;;;;1.30;1.20;;;;;;;;;;5031039;28;20621;-82
2021/05/10 11:46:09;;;;;;;1.30;1.20;;;;;;;;;;5035184;28;20284;-82
2021/05/10 11:48:39;;;;;;;1.20;1.10;;;;;;;;;;5018006;28;20186;-82
2021/05/10 11:51:20;;;;;;;1.53;1.20;;;;;;;;;;5019537;28;20185;-82
2021/05/10 11:53:46;;;;;;;1.37;1.10;;;;;;;;;;5018749;28;20190;-82
2021/05/10 11:56:23;;;;;;;1.67;1.37;;;;;;;;;;5015833;28;20629;-81
2021/05/10 11:58:57;;;;;;;1.30;1.20;;;;;;;;;;5027558;28;20315;-80
2021/05/10 12:01:36;;;;;;;1.47;1.20;;;;;;;;;;5030685;28;20786;-81
2021/05/10 12:04:16;;;;;;;1.57;1.20;;;;;;;;;;5011125;28;20197;-82
2021/05/10 12:06:42;;;;;;;1.30;1.20;;;;;;;;;;5035072;28;20201;-82
2021/05/10 12:09:08;;;;;;;3.23;1.27;;;;;;;;;;5021487;28;20268;-83
2021/05/10 12:11:38;;;;;;;1.50;1.00;;;;;;;;;;5023341;28;20698;-82
2021/05/10 12:14:17;;;;;;;5.93;1.60;;;;;;;;;;5031575;28;20205;-82
2021/05/10 12:17:03;;;;;;;1.60;1.50;;;;;;;;;;5030136;28;20186;-82
2021/05/10 12:19:48;;;;;;;1.60;1.47;;;;;;;;;;5019202;28;20625;-82
2021/05/10 12:22:14;;;;;;;2.67;1.60;;;;;;;;;;5018182;28;20244;-82
2021/05/10 12:24:59;;;;;;;4.60;1.60;;;;;;;;;;5005095;28;20210;-82
2021/05/10 12:27:37;;;;;;;1.67;1.53;;;;;;;;;;5026014;28;20186;-82
2021/05/10 12:30:05;;;;;;;2.27;1.70;;;;;;;;;;5023640;28;20196;-82
2021/05/10 12:32:31;;;;;;;2.27;1.60;;;;;;;;;;5010784;28;20197;-83
2021/05/10 12:34:57;;;;;;;2.03;1.53;;;;;;;;;;5006452;28;20193;-81
2021/05/10 12:37:23;;;;;;;1.60;1.50;;;;;;;;;;5009917;28;20210;-82
2021/05/10 12:40:03;;;;;;;2.30;1.77;;;;;;;;;;5009955;28;20189;-82
2021/05/10 12:42:29;;;;;;;2.00;1.80;;;;;;;;;;5003843;28;20182;-82
2021/05/10 12:44:56;;;;;;;3.73;2.27;;;;;;;;;;5010962;28;20304;-82
2021/05/10 12:47:38;;;;;;;2.17;1.97;;;;;;;;;;5015566;28;20630;-82
2021/05/10 12:50:04;;;;;;;3.97;2.77;;;;;;;;;;5029280;28;20273;-81
2021/05/10 12:52:44;;;;;;;4.63;2.80;;;;;;;;;;5032936;28;20285;-81
2021/05/10 12:55:20;;;;;;;5.57;2.33;;;;;;;;;;5028882;28;20610;-82
2021/05/10 12:57:47;;;;;;;4.47;2.50;;;;;;;;;;5014927;28;20296;-82
2021/05/10 13:00:46;;;;;;;2.57;1.83;;;;;;;;;;5022757;28;20243;-82
2021/05/10 13:03:25;;;;;;;2.00;1.83;;;;;;;;;;4992320;28;20190;-82
2021/05/10 13:05:51;;;;;;;2.57;2.00;;;;;;;;;;5009439;28;20194;-82
2021/05/10 13:08:35;;;;;;;3.00;1.67;;;;;;;;;;5031355;28;20178;-82
2021/05/10 13:11:01;;;;;;;3.23;1.80;;;;;;;;;;5010447;28;20165;-82
2021/05/10 13:13:37;;;;;;;3.77;1.90;;;;;;;;;;5014274;28;20260;-82
2021/05/10 13:16:17;;;;;;;2.87;1.50;;;;;;;;;;5026465;28;20185;-82
2021/05/10 13:18:51;;;;;;;2.37;1.57;;;;;;;;;;5036285;28;20202;-82
2021/05/10 13:32:59;;;;;;;1.47;1.20;;;;;;;;;;5028192;28;20542;-82
2021/05/10 13:35:38;;;;;;;1.77;1.20;;;;;;;;;;5029822;28;20192;-82
2021/05/10 13:38:04;;;;;;;2.07;1.50;;;;;;;;;;5029330;28;20259;-82
2021/05/10 13:40:31;;;;;;;15.53;2.10;;;;;;;;;;5011840;28;20181;-82
2021/05/10 13:43:13;;;;;;;11.83;2.00;;;;;;;;;;5014945;28;20201;-82
2021/05/10 13:45:39;;;;;;;4.40;2.07;;;;;;;;;;5013139;28;20206;-82
2021/05/10 13:48:05;;;;;;;2.77;1.50;;;;;;;;;;5013098;28;20189;-83
2021/05/10 13:50:31;;;;;;;2.63;1.40;;;;;;;;;;5029893;28;20180;-82
2021/05/10 13:52:57;;;;;;;4.53;1.37;;;;;;;;;;5014185;28;20186;-82
2021/05/10 13:55:23;;;;;;;3.43;1.20;;;;;;;;;;5010668;28;20625;-82
2021/05/10 13:57:51;;;;;;;1.53;1.30;;;;;;;;;;5017454;28;20746;-81
2021/05/10 14:00:20;;;;;;;3.83;1.60;;;;;;;;;;5009281;28;20204;-79
2021/05/10 14:02:46;;;;;;;1.83;1.40;;;;;;;;;;5022711;28;20511;-78
2021/05/10 14:05:12;;;;;;;1.80;1.20;;;;;;;;;;5024298;28;20178;-79
2021/05/10 14:07:38;;;;;;;4.17;1.20;;;;;;;;;;5031132;28;20190;-76
2021/05/10 14:10:04;;;;;;;2.10;1.10;;;;;;;;;;5012053;28;20178;-79
2021/05/10 14:12:30;;;;;;;3.30;1.30;;;;;;;;;;5011656;28;20177;-83
2021/05/10 14:14:57;;;;;;;4.23;1.40;;;;;;;;;;5016992;28;20615;-83
2021/05/10 14:17:23;;;;;;;6.17;2.20;;;;;;;;;;5030276;28;20265;-81
2021/05/10 14:19:51;;;;;;;4.90;1.90;;;;;;;;;;5028376;28;20886;-76
2021/05/10 14:22:17;;;;;;;5.20;2.03;;;;;;;;;;5011578;28;20178;-84
2021/05/10 14:24:43;;;;;;;4.80;1.50;;;;;;;;;;5021686;28;20527;-84
2021/05/10 14:27:10;;;;;;;8.13;1.90;;;;;;;;;;5013348;28;20344;-84
2021/05/10 14:29:36;;;;;;;5.50;1.53;;;;;;;;;;5024546;28;20193;-84
2021/05/10 14:32:06;;;;;;;7.47;1.93;;;;;;;;;;5016824;28;20293;-84
2021/05/10 14:34:32;;;;;;;10.20;2.03;;;;;;;;;;5022953;28;20220;-83
2021/05/10 14:36:59;;;;;;;83.80;21.97;;;;;;;;;;5032849;28;20344;-80
2021/05/10 14:39:25;;;;;;;102.73;25.97;;;;;;;;;;5025873;28;20265;-80
2021/05/10 14:41:51;;;;;;;10.17;4.43;;;;;;;;;;5012368;28;20219;-79
2021/05/10 14:44:17;;;;;;;32.77;8.13;;;;;;;;;;5032486;28;20186;-79
2021/05/10 14:46:44;;;;;;;19.67;6.43;;;;;;;;;;5032278;28;20669;-79
2021/05/10 14:49:10;;;;;;;39.33;13.33;;;;;;;;;;5028675;28;20193;-78
2021/05/10 14:51:36;;;;;;;15.87;5.77;;;;;;;;;;5014784;28;20483;-79
2021/05/10 14:54:07;;;;;;;10.03;3.70;;;;;;;;;;5016756;28;20181;-79
2021/05/10 14:56:34;;;;;;;10.53;4.17;;;;;;;;;;5032625;28;20162;-79
2021/05/10 14:59:02;;;;;;;6.23;2.20;;;;;;;;;;5029870;28;20564;-78
2021/05/10 15:01:28;;;;;;;2.47;1.70;;;;;;;;;;5012632;28;20316;-79
2021/05/10 15:03:54;;;;;;;2.33;1.70;;;;;;;;;;5030091;28;20209;-79
2021/05/10 15:06:21;;;;;;;3.33;1.60;;;;;;;;;;5032943;28;20186;-83